createdAt,value
2016-11-04T00:02:35.240Z,89.55
2016-11-04T00:12:35.247Z,89.64
2016-11-04T00:22:35.241Z,89.92
2016-11-04T00:32:35.251Z,89.7
2016-11-04T00:42:35.243Z,89.28
2016-11-04T00:52:35.244Z,88.86
2016-11-04T01:02:35.242Z,88.58
2016-11-04T01:12:35.244Z,88.33
2016-11-04T01:22:35.245Z,88.6
2016-11-04T01:32:35.250Z,88.75
2016-11-04T01:42:35.252Z,88.32
2016-11-04T01:52:35.256Z,88.56
2016-11-04T02:02:35.256Z,88.31
2016-11-04T02:12:35.262Z,87.94
2016-11-04T02:22:35.245Z,87.81
2016-11-04T02:32:35.251Z,87.31
2016-11-04T02:42:35.253Z,87.24
2016-11-04T02:52:35.259Z,87.11
2016-11-04T03:02:35.253Z,87.25
2016-11-04T03:12:35.255Z,87.04
2016-11-04T03:22:35.269Z,86.88
2016-11-04T03:32:35.259Z,86.89
2016-11-04T03:42:35.272Z,86.54
2016-11-04T03:52:35.271Z,86.4
2016-11-04T04:02:35.267Z,86.16
2016-11-04T04:12:35.263Z,86.17
2016-11-04T04:22:35.258Z,86.09
2016-11-04T04:32:35.260Z,85.81
2016-11-04T04:42:35.276Z,85.66
2016-11-04T04:52:35.335Z,85.66
2016-11-04T05:02:35.269Z,85.34
2016-11-04T05:12:35.275Z,85.78
2016-11-04T05:22:35.279Z,85.09
2016-11-04T05:32:35.298Z,85.25
2016-11-04T05:42:35.275Z,86
2016-11-04T05:52:35.286Z,85.43
2016-11-04T06:02:35.279Z,85.4
2016-11-04T06:12:35.323Z,85.55
2016-11-04T06:22:35.283Z,85.73
2016-11-04T06:32:35.293Z,86.28
2016-11-04T06:42:35.283Z,86.49
2016-11-04T06:52:35.284Z,86.51
2016-11-04T07:02:35.282Z,85.95
2016-11-04T07:12:35.287Z,85.87
2016-11-04T07:22:35.280Z,86.11
2016-11-04T07:32:35.282Z,85.91
2016-11-04T07:42:35.281Z,86.6
2016-11-04T07:52:35.297Z,86.67
2016-11-04T08:02:35.283Z,87.2
2016-11-04T08:12:35.285Z,87.53
2016-11-04T08:22:35.289Z,87.74
2016-11-04T08:32:35.288Z,86.79
2016-11-04T08:42:35.287Z,86.59
2016-11-04T08:52:35.281Z,86.11
2016-11-04T09:02:35.287Z,86.66
2016-11-04T09:12:35.296Z,86.72
2016-11-04T09:22:35.297Z,86.58
2016-11-04T09:32:35.304Z,85.28
2016-11-04T09:42:35.296Z,84.68
2016-11-04T09:52:35.304Z,84.94
2016-11-04T10:02:35.310Z,83.66
2016-11-04T10:12:35.322Z,81.56
2016-11-04T10:22:35.312Z,81.21
2016-11-04T10:32:35.302Z,79.85
2016-11-04T10:42:35.314Z,79.38
2016-11-04T10:52:35.309Z,80.02
2016-11-04T11:02:35.308Z,78.99
2016-11-04T11:12:35.316Z,78.9
2016-11-04T11:22:35.303Z,79.26
2016-11-04T11:32:35.304Z,78.18
2016-11-04T11:42:35.318Z,77.97
2016-11-04T11:52:35.323Z,77.35
2016-11-04T12:02:35.326Z,78.22
2016-11-04T12:12:35.329Z,77.1
2016-11-04T12:22:35.326Z,76.65
2016-11-04T12:32:35.328Z,76.87
2016-11-04T12:42:35.322Z,76.78
2016-11-04T12:52:35.334Z,76.35
2016-11-04T13:02:35.335Z,75.21
2016-11-04T13:12:35.322Z,74.8
2016-11-04T13:22:35.332Z,74.59
2016-11-04T13:32:35.333Z,75.29
2016-11-04T13:42:35.336Z,74.13
2016-11-04T13:52:35.346Z,75.61
2016-11-04T14:02:35.332Z,77.11
2016-11-04T14:12:35.338Z,76.73
2016-11-04T14:22:35.344Z,76.8
2016-11-04T14:32:35.340Z,76.86
2016-11-04T14:42:35.339Z,77.4
2016-11-04T14:52:35.336Z,77.19
2016-11-04T15:02:35.350Z,76.45
2016-11-04T15:12:35.341Z,77.92
2016-11-04T15:22:35.395Z,78.63
2016-11-04T15:32:35.347Z,79.57
2016-11-04T15:42:35.394Z,80.8
2016-11-04T15:52:35.345Z,80.99
2016-11-04T16:02:35.361Z,81.08
2016-11-04T16:12:35.368Z,80.98
2016-11-04T16:22:35.345Z,80.58
2016-11-04T16:32:35.379Z,80.87
2016-11-04T16:42:36.848Z,81.29
2016-11-04T16:52:35.388Z,81.37
2016-11-04T17:02:35.351Z,81.38
2016-11-04T17:12:35.355Z,81.38
2016-11-04T17:22:35.366Z,81.4
2016-11-04T17:32:35.377Z,81.28
2016-11-04T17:42:36.859Z,81.01
2016-11-04T17:52:35.363Z,81.38
2016-11-04T18:02:35.361Z,81.39
2016-11-04T18:12:35.362Z,81.65
2016-11-04T18:22:35.438Z,82.22
2016-11-04T18:32:35.381Z,82.36
2016-11-04T18:42:35.395Z,82.49
2016-11-04T18:52:35.365Z,82.57
2016-11-04T19:02:35.361Z,82.55
2016-11-04T19:12:35.362Z,82.58
2016-11-04T19:22:35.371Z,82.49
2016-11-04T19:32:35.393Z,82.97
2016-11-04T19:42:35.377Z,82.28
2016-11-04T19:52:35.366Z,82.51
2016-11-04T20:02:35.358Z,82.17
2016-11-04T20:12:35.380Z,82.12
2016-11-04T20:22:35.362Z,82.31
2016-11-04T20:32:35.369Z,82.63
2016-11-04T20:42:35.386Z,82.92
2016-11-04T20:52:35.391Z,83.1
2016-11-04T21:02:35.367Z,82.92
2016-11-04T21:12:35.365Z,82.93
2016-11-04T21:22:35.371Z,82.91
2016-11-04T21:32:35.403Z,83.18
2016-11-04T21:42:35.486Z,83.32
2016-11-04T21:52:35.382Z,83.24
